Makara Of Exe — 2DGO5 — position and weather

sailwx.info

Track history (hours):
 
Tides and Currents Weather Stations Pressure Air Temp Water Temp Dewpoint Dewpoint Depression Visibility Wind Speed Wind Dir Waves Ship Positions

Makara Of Exe

Last reported at 2017-Jun-16 13:19 UTC. Time now 2017-Jun-22 18:40 UTC.
Position N 36°58' W 008°08'.

Length 15 m.

Type: Sailing vessel. MMSI: 235078777.

Date/timePositionNaut miles runAvg speedWind from/ knotsBaromVisibWave heightAir tempDewpointWater temp
2017-Jun-16 13:19N 36°58' W 008°08'3 5.5
2017-Jun-16 12:46N 37°01' W 008°10'1 3.4
2017-Jun-16 12:29N 37°01' W 008°11'1 2.2
2017-Jun-16 12:00N 37°01' W 008°13'2 4.5
2017-Jun-16 11:30N 37°02' W 008°15'4 7.4
2017-Jun-16 11:00N 37°03' W 008°19'4 7.2
2017-Jun-16 10:30N 37°04' W 008°24'4 7.2
2017-Jun-16 10:00N 37°05' W 008°28'4 7.1
2017-Jun-16 09:30N 37°06' W 008°32'1 0.0
2017-Jun-14 20:23N 37°07' W 008°32'0 0.0
2017-Jun-14 19:32N 37°07' W 008°32'0 0.0
2017-Jun-14 19:26N 37°07' W 008°32'0 0.0
2017-Jun-14 18:32N 37°07' W 008°32'0 0.1
2017-Jun-14 18:29N 37°07' W 008°32'2 3.2
2017-Jun-14 18:00N 37°06' W 008°33'4 7.6
2017-Jun-14 17:30N 37°04' W 008°37'4 6.8
2017-Jun-14 16:59N 37°03' W 008°41'4 6.1
2017-Jun-14 16:20N 37°01' W 008°45'1 4.0
2017-Jun-14 16:00N 37°01' W 008°47'42 5.5
2017-Jun-14 08:19N 37°43' W 008°55'3 7.8
2017-Jun-14 07:58N 37°46' W 008°54'4 7.8
2017-Jun-14 07:30N 37°50' W 008°53'4 7.7
2017-Jun-14 07:00N 37°54' W 008°53'3 6.5
2017-Jun-14 06:30N 37°57' W 008°52'0 0.1
2017-Jun-13 21:57N 37°57' W 008°52'0 0.0
2017-Jun-13 21:27N 37°57' W 008°52'0 0.0
2017-Jun-13 21:00N 37°57' W 008°52'0 0.0
2017-Jun-13 20:27N 37°57' W 008°52'0 0.0
2017-Jun-13 19:54N 37°57' W 008°52'0 0.0
2017-Jun-13 19:30N 37°57' W 008°52'0 0.0
2017-Jun-13 18:57N 37°57' W 008°52'0 0.0
2017-Jun-13 18:30N 37°57' W 008°52'0 0.2
2017-Jun-13 18:00N 37°57' W 008°52'2 4.4
2017-Jun-13 17:30N 37°57' W 008°55'4 7.7
2017-Jun-13 17:00N 38°01' W 008°57'4 7.8
2017-Jun-13 16:31N 38°05' W 008°59'4 8.0
2017-Jun-13 16:00N 38°08' W 009°02'4 7.8
2017-Jun-13 15:31N 38°11' W 009°05'4 7.6
2017-Jun-13 15:00N 38°14' W 009°07'19 5.8
2017-Jun-13 11:43N 38°31' W 009°19'5 5.6
2017-Jun-13 10:51N 38°35' W 009°22'1 3.4
2017-Jun-13 10:30N 38°36' W 009°22'3 6.2
2017-Jun-13 09:58N 38°39' W 009°23'  
Track history (hours):
 
Tides and Currents Weather Stations Pressure Air Temp Water Temp Dewpoint Dewpoint Depression Visibility Wind Speed Wind Dir Waves Ship Positions

Makara Of Exe

Last reported at 2017-Jun-16 13:19 UTC. Time now 2017-Jun-22 18:40 UTC.
Position N 36°58' W 008°08'.

Length 15 m.

Type: Sailing vessel. MMSI: 235078777.

Date/timePositionNaut miles runAvg speedWind from/ knotsBaromVisibWave heightAir tempDewpointWater temp
2017-Jun-16 13:19N 36°58' W 008°08'3 5.5
2017-Jun-16 12:46N 37°01' W 008°10'1 3.4
2017-Jun-16 12:29N 37°01' W 008°11'1 2.2
2017-Jun-16 12:00N 37°01' W 008°13'2 4.5
2017-Jun-16 11:30N 37°02' W 008°15'4 7.4
2017-Jun-16 11:00N 37°03' W 008°19'4 7.2
2017-Jun-16 10:30N 37°04' W 008°24'4 7.2
2017-Jun-16 10:00N 37°05' W 008°28'4 7.1
2017-Jun-16 09:30N 37°06' W 008°32'1 0.0
2017-Jun-14 20:23N 37°07' W 008°32'0 0.0
2017-Jun-14 19:32N 37°07' W 008°32'0 0.0
2017-Jun-14 19:26N 37°07' W 008°32'0 0.0
2017-Jun-14 18:32N 37°07' W 008°32'0 0.1
2017-Jun-14 18:29N 37°07' W 008°32'2 3.2
2017-Jun-14 18:00N 37°06' W 008°33'4 7.6
2017-Jun-14 17:30N 37°04' W 008°37'4 6.8
2017-Jun-14 16:59N 37°03' W 008°41'4 6.1
2017-Jun-14 16:20N 37°01' W 008°45'1 4.0
2017-Jun-14 16:00N 37°01' W 008°47'42 5.5
2017-Jun-14 08:19N 37°43' W 008°55'3 7.8
2017-Jun-14 07:58N 37°46' W 008°54'4 7.8
2017-Jun-14 07:30N 37°50' W 008°53'4 7.7
2017-Jun-14 07:00N 37°54' W 008°53'3 6.5
2017-Jun-14 06:30N 37°57' W 008°52'0 0.1
2017-Jun-13 21:57N 37°57' W 008°52'0 0.0
2017-Jun-13 21:27N 37°57' W 008°52'0 0.0
2017-Jun-13 21:00N 37°57' W 008°52'0 0.0
2017-Jun-13 20:27N 37°57' W 008°52'0 0.0
2017-Jun-13 19:54N 37°57' W 008°52'0 0.0
2017-Jun-13 19:30N 37°57' W 008°52'0 0.0
2017-Jun-13 18:57N 37°57' W 008°52'0 0.0
2017-Jun-13 18:30N 37°57' W 008°52'0 0.2
2017-Jun-13 18:00N 37°57' W 008°52'2 4.4
2017-Jun-13 17:30N 37°57' W 008°55'4 7.7
2017-Jun-13 17:00N 38°01' W 008°57'4 7.8
2017-Jun-13 16:31N 38°05' W 008°59'4 8.0
2017-Jun-13 16:00N 38°08' W 009°02'4 7.8
2017-Jun-13 15:31N 38°11' W 009°05'4 7.6
2017-Jun-13 15:00N 38°14' W 009°07'19 5.8
2017-Jun-13 11:43N 38°31' W 009°19'5 5.6
2017-Jun-13 10:51N 38°35' W 009°22'1 3.4
2017-Jun-13 10:30N 38°36' W 009°22'3 6.2
2017-Jun-13 09:58N 38°39' W 009°23'  

Dump ship's entire track history